Time;durP1;ratioP1;P1;durP2;ratioP2;P2;SDS_P1;SDS_P2;PMS_P1;PMS_P2;Temp;Humidity;BMP_temperature;BMP_pressure;BME280_temperature;BME280_humidity;BME280_pressure;Samples;Min_cycle;Max_cycle;Signal;HPM_P1;HPM_P2
2023/02/22 00:02:23;;;;;;;;;;;10.20;99.90;;;;;;5075076;28;19966;-69
2023/02/22 00:04:49;;;;;;;;;;;10.30;99.90;;;;;;5073295;28;20328;-68
2023/02/22 00:07:15;;;;;;;;;;;10.30;99.90;;;;;;5077989;28;19912;-69
2023/02/22 00:09:40;;;;;;;;;;;10.20;99.90;;;;;;5068462;28;19923;-72
2023/02/22 00:12:07;;;;;;;;;;;10.10;99.90;;;;;;5059142;28;19912;-67
2023/02/22 00:14:33;;;;;;;;;;;10.00;99.90;;;;;;5060981;28;19925;-71
2023/02/22 00:16:58;;;;;;;;;;;10.00;99.90;;;;;;5057300;28;19913;-66
2023/02/22 00:19:25;;;;;;;;;;;10.00;99.90;;;;;;5078696;28;19915;-69
2023/02/22 00:21:52;;;;;;;;;;;10.00;99.90;;;;;;5058252;28;19916;-70
2023/02/22 00:24:23;;;;;;;;;;;10.00;99.90;;;;;;5058696;28;19937;-72
2023/02/22 00:26:54;;;;;;;;;;;10.00;99.90;;;;;;5061183;28;19924;-67
2023/02/22 00:29:20;;;;;;;;;;;10.00;99.90;;;;;;5056020;28;20338;-70
2023/02/22 00:31:46;;;;;;;;;;;10.00;99.90;;;;;;5059361;28;20006;-71
2023/02/22 00:34:12;;;;;;;;;;;9.90;99.90;;;;;;5058982;28;19924;-73
2023/02/22 00:36:38;;;;;;;;;;;9.90;99.90;;;;;;5055478;28;19931;-70
2023/02/22 00:39:03;;;;;;;;;;;9.90;99.90;;;;;;5057866;28;20008;-69
2023/02/22 00:41:29;;;;;;;;;;;9.80;99.90;;;;;;5052161;28;19932;-66
2023/02/22 00:43:55;;;;;;;;;;;9.80;99.90;;;;;;5052161;28;20445;-68
2023/02/22 00:46:21;;;;;;;;;;;9.90;99.90;;;;;;5055741;28;19928;-68
2023/02/22 00:48:46;;;;;;;;;;;9.80;99.90;;;;;;5059228;28;20007;-69
2023/02/22 00:51:12;;;;;;;;;;;9.80;99.90;;;;;;5055803;28;19999;-69
2023/02/22 00:53:38;;;;;;;;;;;9.90;99.90;;;;;;5057506;28;19913;-71
2023/02/22 00:56:03;;;;;;;;;;;9.80;99.90;;;;;;5058737;28;19921;-69
2023/02/22 00:58:29;;;;;;;;;;;9.80;99.90;;;;;;5055655;28;20045;-69
2023/02/22 01:00:54;;;;;;;;;;;9.70;99.90;;;;;;5052492;28;19960;-74
2023/02/22 01:03:20;;;;;;;;;;;9.60;99.90;;;;;;5056137;28;19923;-69
2023/02/22 01:05:46;;;;;;;;;;;9.80;99.90;;;;;;5053188;28;19930;-69
2023/02/22 01:08:13;;;;;;;;;;;9.70;99.90;;;;;;5054629;28;19920;-69
2023/02/22 01:10:39;;;;;;;;;;;9.60;99.90;;;;;;5058783;28;19913;-68
2023/02/22 01:13:07;;;;;;;;;;;9.60;99.90;;;;;;5057329;28;20511;-67
2023/02/22 01:15:34;;;;;;;;;;;9.50;99.90;;;;;;5056014;28;19923;-66
2023/02/22 01:17:59;;;;;;;;;;;9.40;99.90;;;;;;5051203;28;19948;-69
2023/02/22 01:20:26;;;;;;;;;;;9.40;99.90;;;;;;5054299;28;20346;-69
2023/02/22 01:22:53;;;;;;;;;;;9.20;99.90;;;;;;5055731;28;20058;-69
2023/02/22 01:25:26;;;;;;;;;;;9.20;99.90;;;;;;5055585;28;19913;-72
2023/02/22 01:27:52;;;;;;;;;;;9.20;99.90;;;;;;5054392;28;19990;-71
2023/02/22 01:30:22;;;;;;;;;;;9.20;99.90;;;;;;5054733;28;19912;-70
2023/02/22 01:32:49;;;;;;;;;;;9.20;99.90;;;;;;5056244;28;19924;-70
2023/02/22 01:35:17;;;;;;;;;;;9.10;99.90;;;;;;5056611;28;19924;-67
2023/02/22 01:37:43;;;;;;;;;;;9.30;99.90;;;;;;5053342;28;19919;-71
2023/02/22 01:40:15;;;;;;;;;;;9.20;99.90;;;;;;5056445;28;19912;-69
2023/02/22 01:42:41;;;;;;;;;;;9.20;99.90;;;;;;5055859;28;19917;-71
2023/02/22 01:45:26;;;;;;;;;;;9.30;99.90;;;;;;5051946;28;19959;-70
2023/02/22 01:47:53;;;;;;;;;;;9.30;99.90;;;;;;5052494;28;19917;-69
2023/02/22 01:50:18;;;;;;;;;;;9.30;99.90;;;;;;5054972;28;19967;-73
2023/02/22 01:52:44;;;;;;;;;;;9.40;99.90;;;;;;5056417;28;20085;-71
2023/02/22 01:55:10;;;;;;;;;;;9.40;99.90;;;;;;5043700;28;19916;-71
2023/02/22 01:57:36;;;;;;;;;;;9.40;99.90;;;;;;5070429;28;20011;-69
2023/02/22 02:00:11;;;;;;;;;;;9.30;99.90;;;;;;5072315;28;19930;-68
2023/02/22 02:02:43;;;;;;;;;;;9.40;99.90;;;;;;5073601;28;20285;-67
2023/02/22 02:05:09;;;;;;;;;;;9.30;99.90;;;;;;5072734;28;19909;-69
2023/02/22 02:07:36;;;;;;;;;;;9.40;99.90;;;;;;5073160;28;20393;-69
2023/02/22 02:10:03;;;;;;;;;;;9.30;99.90;;;;;;5066540;28;20009;-66
2023/02/22 02:12:31;;;;;;;;;;;9.30;99.90;;;;;;5071992;28;19913;-66
2023/02/22 02:15:15;;;;;;;;;;;9.30;99.90;;;;;;5073760;28;19962;-67
2023/02/22 02:17:42;;;;;;;;;;;9.30;99.90;;;;;;5072643;28;19916;-69
2023/02/22 02:20:10;;;;;;;;;;;9.30;99.90;;;;;;5072916;28;19908;-68
2023/02/22 02:22:37;;;;;;;;;;;9.10;99.90;;;;;;5074200;28;19960;-66
2023/02/22 02:25:05;;;;;;;;;;;9.10;99.90;;;;;;5072551;28;19912;-69
2023/02/22 02:27:54;;;;;;;;;;;9.10;99.90;;;;;;5059253;28;19921;-72
2023/02/22 02:30:22;;;;;;;;;;;8.90;99.90;;;;;;5032053;28;20038;-66
2023/02/22 02:32:48;;;;;;;;;;;8.90;99.90;;;;;;5051457;28;19958;-67
2023/02/22 02:35:20;;;;;;;;;;;8.90;99.90;;;;;;5053705;28;19920;-68
2023/02/22 02:37:51;;;;;;;;;;;8.90;99.90;;;;;;5053163;28;19923;-68
2023/02/22 02:40:19;;;;;;;;;;;8.90;99.90;;;;;;5055616;28;19996;-69
2023/02/22 02:43:04;;;;;;;;;;;8.90;99.90;;;;;;5051285;28;19970;-65
2023/02/22 02:45:32;;;;;;;;;;;8.90;99.90;;;;;;5062779;28;19920;-66
2023/02/22 02:47:58;;;;;;;;;;;9.00;99.90;;;;;;5072905;28;19966;-69
2023/02/22 02:50:32;;;;;;;;;;;8.90;99.90;;;;;;5071684;28;19923;-69
2023/02/22 02:53:00;;;;;;;;;;;8.90;99.90;;;;;;5067887;28;20256;-69
2023/02/22 02:55:26;;;;;;;;;;;8.80;99.90;;;;;;5071865;28;20277;-66
2023/02/22 02:57:52;;;;;;;;;;;8.90;99.90;;;;;;5066444;28;19912;-70
2023/02/22 03:00:24;;;;;;;;;;;8.90;99.90;;;;;;5071045;28;20025;-70
2023/02/22 03:03:09;;;;;;;;;;;8.80;99.90;;;;;;5072607;28;20007;-66
2023/02/22 03:05:53;;;;;;;;;;;8.80;99.90;;;;;;5072122;28;19908;-69
2023/02/22 03:08:26;;;;;;;;;;;8.70;99.90;;;;;;5081677;28;19961;-68
2023/02/22 03:11:01;;;;;;;;;;;8.70;99.90;;;;;;5084463;28;20357;-62
2023/02/22 03:13:30;;;;;;;;;;;8.70;99.90;;;;;;5077752;28;19912;-72
2023/02/22 03:16:06;;;;;;;;;;;8.70;99.90;;;;;;5070328;28;19962;-69
2023/02/22 03:18:34;;;;;;;;;;;8.70;99.90;;;;;;5070240;28;19954;-69
2023/02/22 03:21:09;;;;;;;;;;;8.70;99.90;;;;;;5075987;28;19970;-68
2023/02/22 03:23:55;;;;;;;;;;;8.50;99.90;;;;;;5075775;28;19912;-70
2023/02/22 03:26:23;;;;;;;;;;;8.50;99.90;;;;;;5072077;28;19912;-68
2023/02/22 03:28:50;;;;;;;;;;;8.60;99.90;;;;;;5076080;28;19909;-69
2023/02/22 03:31:20;;;;;;;;;;;8.70;99.90;;;;;;5076170;28;19908;-69
2023/02/22 03:33:49;;;;;;;;;;;8.60;99.90;;;;;;5081880;28;19912;-69
2023/02/22 03:36:18;;;;;;;;;;;8.60;99.90;;;;;;5068353;28;19913;-69
2023/02/22 03:38:44;;;;;;;;;;;8.70;99.90;;;;;;5073883;28;20334;-73
2023/02/22 03:41:10;;;;;;;;;;;8.60;99.90;;;;;;5075485;28;20450;-68
2023/02/22 03:43:42;;;;;;;;;;;8.60;99.90;;;;;;5075398;28;19909;-69
2023/02/22 03:46:08;;;;;;;;;;;8.50;99.90;;;;;;5075437;28;19909;-69
2023/02/22 03:48:34;;;;;;;;;;;8.40;99.90;;;;;;5073443;28;19913;-69
2023/02/22 03:51:03;;;;;;;;;;;8.40;99.90;;;;;;5075432;28;19961;-69
2023/02/22 03:53:29;;;;;;;;;;;8.40;99.90;;;;;;5074638;28;19974;-69
2023/02/22 03:55:57;;;;;;;;;;;8.50;99.90;;;;;;5071470;28;19942;-68
2023/02/22 03:58:23;;;;;;;;;;;8.50;99.90;;;;;;5075881;28;19916;-69
2023/02/22 04:00:51;;;;;;;;;;;8.50;99.90;;;;;;5075927;28;19909;-68
2023/02/22 04:03:18;;;;;;;;;;;8.50;99.90;;;;;;5075407;28;19909;-72
2023/02/22 04:05:44;;;;;;;;;;;8.40;99.90;;;;;;5075194;28;20273;-68
2023/02/22 04:08:09;;;;;;;;;;;8.40;99.90;;;;;;5072953;28;19927;-65
2023/02/22 04:10:36;;;;;;;;;;;8.40;99.90;;;;;;5072230;28;20004;-69
2023/02/22 04:13:02;;;;;;;;;;;8.30;99.90;;;;;;5075379;28;19961;-66
2023/02/22 04:15:28;;;;;;;;;;;8.30;99.90;;;;;;5073706;28;20362;-67
2023/02/22 04:17:54;;;;;;;;;;;8.20;99.90;;;;;;5075704;28;19944;-69
2023/02/22 04:20:24;;;;;;;;;;;8.20;99.90;;;;;;5075335;28;19908;-68
2023/02/22 04:22:54;;;;;;;;;;;8.20;99.90;;;;;;5075373;28;19948;-69
2023/02/22 04:25:21;;;;;;;;;;;8.10;99.90;;;;;;5069182;28;20400;-69
2023/02/22 04:27:47;;;;;;;;;;;8.10;99.90;;;;;;5056673;28;19956;-68
2023/02/22 04:30:15;;;;;;;;;;;8.10;99.90;;;;;;5054171;28;20350;-68
2023/02/22 04:32:41;;;;;;;;;;;8.20;99.90;;;;;;5053660;28;19919;-69
2023/02/22 04:35:06;;;;;;;;;;;8.20;99.90;;;;;;5053274;28;20294;-67
2023/02/22 04:37:33;;;;;;;;;;;8.20;99.90;;;;;;5051721;28;20043;-68
2023/02/22 04:39:59;;;;;;;;;;;8.10;99.90;;;;;;5065468;28;19951;-67
2023/02/22 04:42:25;;;;;;;;;;;8.20;99.90;;;;;;5067384;28;20503;-67
2023/02/22 04:44:51;;;;;;;;;;;8.20;99.90;;;;;;5057240;28;19913;-69
2023/02/22 04:47:16;;;;;;;;;;;8.10;99.90;;;;;;5057961;28;20524;-69
2023/02/22 04:49:42;;;;;;;;;;;8.10;99.90;;;;;;5052196;28;20382;-67
2023/02/22 04:52:08;;;;;;;;;;;8.10;99.90;;;;;;5057076;28;19913;-67
2023/02/22 04:54:33;;;;;;;;;;;8.00;99.90;;;;;;5053665;28;20410;-68
2023/02/22 04:56:59;;;;;;;;;;;8.00;99.90;;;;;;5055294;28;19945;-68
2023/02/22 04:59:25;;;;;;;;;;;8.10;99.90;;;;;;5053530;28;19917;-66
2023/02/22 05:01:50;;;;;;;;;;;7.90;99.90;;;;;;5053753;28;19917;-68
2023/02/22 05:04:16;;;;;;;;;;;7.90;99.90;;;;;;5053476;28;19917;-69
2023/02/22 05:06:41;;;;;;;;;;;7.90;99.90;;;;;;5051967;28;19919;-67
2023/02/22 05:09:07;;;;;;;;;;;7.80;99.90;;;;;;5051728;28;19940;-69
2023/02/22 05:11:33;;;;;;;;;;;7.80;99.90;;;;;;5053468;28;20015;-70
2023/02/22 05:13:59;;;;;;;;;;;7.80;99.90;;;;;;5053639;28;19919;-69
2023/02/22 05:16:25;;;;;;;;;;;7.80;99.90;;;;;;5053678;28;19940;-69
2023/02/22 05:18:50;;;;;;;;;;;7.70;99.90;;;;;;5051849;28;19913;-73
2023/02/22 05:21:16;;;;;;;;;;;7.70;99.90;;;;;;5058014;28;20251;-69
2023/02/22 05:23:42;;;;;;;;;;;7.70;99.90;;;;;;5050126;28;19913;-68
2023/02/22 05:26:09;;;;;;;;;;;7.70;99.90;;;;;;5053191;28;19916;-66
2023/02/22 05:28:34;;;;;;;;;;;7.60;99.90;;;;;;5054811;28;21073;-66
2023/02/22 05:31:00;;;;;;;;;;;7.70;99.90;;;;;;5046102;28;19924;-66
2023/02/22 05:33:26;;;;;;;;;;;7.70;99.90;;;;;;5054212;28;20489;-67
2023/02/22 05:35:51;;;;;;;;;;;7.70;99.90;;;;;;5055818;28;19925;-69
2023/02/22 05:38:17;;;;;;;;;;;7.70;99.90;;;;;;5053761;28;20370;-69
2023/02/22 05:40:43;;;;;;;;;;;7.60;99.90;;;;;;5051316;28;19913;-67
2023/02/22 05:43:09;;;;;;;;;;;7.50;99.90;;;;;;5049765;28;19999;-66
2023/02/22 05:45:35;;;;;;;;;;;7.50;99.90;;;;;;5054353;28;19952;-69
2023/02/22 05:48:01;;;;;;;;;;;7.50;99.90;;;;;;5055179;28;19956;-67
2023/02/22 05:50:26;;;;;;;;;;;7.50;99.90;;;;;;5053494;28;20298;-68
2023/02/22 05:52:52;;;;;;;;;;;7.50;99.90;;;;;;5053826;28;19924;-69
2023/02/22 05:55:19;;;;;;;;;;;7.50;99.90;;;;;;5052991;28;19917;-69
2023/02/22 05:57:45;;;;;;;;;;;7.50;99.90;;;;;;5054650;28;19916;-68
2023/02/22 06:00:15;;;;;;;;;;;7.60;99.90;;;;;;5053790;28;19912;-68
2023/02/22 06:02:41;;;;;;;;;;;7.60;99.90;;;;;;5052108;28;19920;-71
2023/02/22 06:05:06;;;;;;;;;;;7.50;99.90;;;;;;5051206;28;19921;-69
2023/02/22 06:07:32;;;;;;;;;;;7.50;99.90;;;;;;5051462;28;19944;-69
2023/02/22 06:09:58;;;;;;;;;;;7.60;99.90;;;;;;5052668;28;19943;-69
2023/02/22 06:12:23;;;;;;;;;;;7.60;99.90;;;;;;5071632;28;19963;-68
2023/02/22 06:14:49;;;;;;;;;;;7.50;99.90;;;;;;5072373;28;19919;-69
2023/02/22 06:17:15;;;;;;;;;;;7.50;99.90;;;;;;5073131;28;20385;-71
2023/02/22 06:19:40;;;;;;;;;;;7.60;99.90;;;;;;5072453;28;19935;-69
2023/02/22 06:22:06;;;;;;;;;;;7.60;99.90;;;;;;5072700;28;19924;-69
2023/02/22 06:24:32;;;;;;;;;;;7.50;99.90;;;;;;5071628;28;20345;-67
2023/02/22 06:26:59;;;;;;;;;;;7.50;99.90;;;;;;5077901;28;20432;-68
2023/02/22 06:29:26;;;;;;;;;;;7.40;99.90;;;;;;5069957;28;20363;-69
2023/02/22 06:31:51;;;;;;;;;;;7.60;99.90;;;;;;5057554;28;19912;-68
2023/02/22 06:34:17;;;;;;;;;;;7.50;99.90;;;;;;5054012;28;20354;-69
2023/02/22 06:36:43;;;;;;;;;;;7.50;99.90;;;;;;5050486;28;19913;-68
2023/02/22 06:39:09;;;;;;;;;;;7.50;99.90;;;;;;5051324;28;19913;-69
2023/02/22 06:41:42;;;;;;;;;;;7.50;99.90;;;;;;5051909;28;19925;-68
2023/02/22 06:44:09;;;;;;;;;;;7.50;99.90;;;;;;5052350;28;19975;-70
2023/02/22 06:46:35;;;;;;;;;;;7.70;99.90;;;;;;5049309;28;19959;-66
2023/02/22 06:49:01;;;;;;;;;;;7.70;99.90;;;;;;5054000;28;19939;-69
2023/02/22 06:51:27;;;;;;;;;;;7.60;99.90;;;;;;5052014;28;19913;-69
2023/02/22 06:53:53;;;;;;;;;;;7.60;99.90;;;;;;5052126;28;19921;-66
2023/02/22 06:56:18;;;;;;;;;;;7.70;99.90;;;;;;5050193;28;19927;-65
2023/02/22 06:58:44;;;;;;;;;;;7.70;99.90;;;;;;5052279;28;20366;-69
2023/02/22 07:01:10;;;;;;;;;;;7.70;99.90;;;;;;5049756;28;19924;-65
2023/02/22 07:03:36;;;;;;;;;;;7.70;99.90;;;;;;5049524;28;19916;-67
2023/02/22 07:06:03;;;;;;;;;;;7.70;99.90;;;;;;5054241;28;20398;-69
2023/02/22 07:08:29;;;;;;;;;;;7.70;99.90;;;;;;5052726;28;19920;-67
2023/02/22 07:10:54;;;;;;;;;;;7.70;99.90;;;;;;5048997;28;19936;-67
2023/02/22 07:13:20;;;;;;;;;;;7.90;99.90;;;;;;5051505;28;20302;-69
2023/02/22 07:15:46;;;;;;;;;;;8.20;99.90;;;;;;5049700;28;20259;-68
2023/02/22 07:18:12;;;;;;;;;;;8.30;99.90;;;;;;5036942;28;20294;-68
2023/02/22 07:20:38;;;;;;;;;;;8.30;99.90;;;;;;5053838;28;20006;-69
2023/02/22 07:23:04;;;;;;;;;;;8.40;99.90;;;;;;5054869;28;20002;-68
2023/02/22 07:25:29;;;;;;;;;;;8.40;99.90;;;;;;5062035;28;19932;-67
2023/02/22 07:27:55;;;;;;;;;;;8.50;99.90;;;;;;5063266;28;20477;-68
2023/02/22 07:30:29;;;;;;;;;;;8.50;99.90;;;;;;5072094;28;19909;-69
2023/02/22 07:32:56;;;;;;;;;;;8.40;99.90;;;;;;5070855;28;19920;-69
2023/02/22 07:35:28;;;;;;;;;;;8.40;99.90;;;;;;5069084;28;20003;-67
2023/02/22 07:37:54;;;;;;;;;;;8.70;99.90;;;;;;5064230;28;19912;-67
2023/02/22 07:40:21;;;;;;;;;;;9.00;99.90;;;;;;5061255;28;19958;-67
2023/02/22 07:42:54;;;;;;;;;;;9.00;99.90;;;;;;5068348;28;20047;-67
2023/02/22 07:45:20;;;;;;;;;;;9.00;99.90;;;;;;5070799;28;19921;-67
2023/02/22 07:47:46;;;;;;;;;;;9.00;99.90;;;;;;5064324;28;19916;-67
2023/02/22 07:50:13;;;;;;;;;;;9.00;99.90;;;;;;5068058;28;19913;-66
2023/02/22 07:52:38;;;;;;;;;;;9.00;99.90;;;;;;5070281;28;20007;-69
2023/02/22 07:55:05;;;;;;;;;;;9.10;99.90;;;;;;5069978;28;19959;-72
2023/02/22 07:57:31;;;;;;;;;;;9.20;99.90;;;;;;5074103;28;19913;-67
2023/02/22 07:59:57;;;;;;;;;;;9.10;99.90;;;;;;5074700;28;19912;-67
2023/02/22 08:02:24;;;;;;;;;;;9.00;99.90;;;;;;5072455;28;20273;-67
2023/02/22 08:04:50;;;;;;;;;;;9.00;99.90;;;;;;5064322;28;19912;-67
2023/02/22 08:07:15;;;;;;;;;;;9.20;99.90;;;;;;5068985;28;20007;-69
2023/02/22 08:09:41;;;;;;;;;;;9.40;99.90;;;;;;5070120;28;19955;-67
2023/02/22 08:12:07;;;;;;;;;;;9.50;99.90;;;;;;5067638;28;19916;-67
2023/02/22 08:14:32;;;;;;;;;;;9.30;99.90;;;;;;5074953;28;19912;-67
2023/02/22 08:16:58;;;;;;;;;;;9.30;99.90;;;;;;5073565;28;20007;-67
2023/02/22 08:19:24;;;;;;;;;;;9.30;99.90;;;;;;5081984;28;19957;-67
2023/02/22 08:21:49;;;;;;;;;;;9.40;99.90;;;;;;5077290;28;19924;-67
2023/02/22 08:24:15;;;;;;;;;;;9.60;99.90;;;;;;5064090;28;19970;-67
2023/02/22 08:26:44;;;;;;;;;;;9.70;99.90;;;;;;5069581;28;19912;-67
2023/02/22 08:29:10;;;;;;;;;;;9.70;99.90;;;;;;5071801;28;19913;-67
2023/02/22 08:31:35;;;;;;;;;;;9.70;99.90;;;;;;5069083;28;20298;-67
2023/02/22 08:34:01;;;;;;;;;;;9.80;99.90;;;;;;5070431;28;19912;-63
2023/02/22 08:36:28;;;;;;;;;;;9.90;99.90;;;;;;5071686;28;20342;-65
2023/02/22 08:38:53;;;;;;;;;;;10.00;99.90;;;;;;5074913;28;19916;-64
2023/02/22 08:41:19;;;;;;;;;;;10.00;99.90;;;;;;5067118;28;19916;-63
2023/02/22 08:43:45;;;;;;;;;;;10.10;99.90;;;;;;5071235;28;20315;-67
2023/02/22 08:46:10;;;;;;;;;;;10.20;99.90;;;;;;5064914;28;20014;-67
2023/02/22 08:48:36;;;;;;;;;;;10.00;99.90;;;;;;5073764;28;19915;-68
2023/02/22 08:51:02;;;;;;;;;;;10.00;99.90;;;;;;5073645;28;20390;-67
2023/02/22 08:53:27;;;;;;;;;;;9.90;99.90;;;;;;5067722;28;19963;-68
2023/02/22 08:55:53;;;;;;;;;;;9.90;99.90;;;;;;5068425;28;19974;-70
2023/02/22 08:58:18;;;;;;;;;;;9.70;99.90;;;;;;5067348;28;20102;-67
2023/02/22 09:00:44;;;;;;;;;;;9.70;99.90;;;;;;5068606;28;19912;-68
2023/02/22 09:03:12;;;;;;;;;;;9.70;99.90;;;;;;5069258;28;19943;-67
2023/02/22 09:05:38;;;;;;;;;;;9.80;99.90;;;;;;5075122;28;19966;-67
2023/02/22 09:08:04;;;;;;;;;;;9.70;99.90;;;;;;5078224;28;19913;-67
2023/02/22 09:10:30;;;;;;;;;;;9.90;99.90;;;;;;5064460;28;19921;-67
2023/02/22 09:12:59;;;;;;;;;;;9.90;99.90;;;;;;5073483;28;20325;-67
2023/02/22 09:15:25;;;;;;;;;;;10.00;99.90;;;;;;5066789;28;19994;-67
2023/02/22 09:17:52;;;;;;;;;;;10.10;99.90;;;;;;5072644;28;20290;-67
2023/02/22 09:20:18;;;;;;;;;;;10.20;99.90;;;;;;5071346;28;19913;-67
2023/02/22 09:22:45;;;;;;;;;;;10.10;99.90;;;;;;5063944;28;19917;-67
2023/02/22 09:25:11;;;;;;;;;;;10.20;99.90;;;;;;5072659;28;19908;-67
2023/02/22 09:27:37;;;;;;;;;;;10.10;99.90;;;;;;5068033;28;19923;-67
2023/02/22 09:30:03;;;;;;;;;;;10.20;99.90;;;;;;5073714;28;19942;-67
2023/02/22 09:32:29;;;;;;;;;;;10.30;99.90;;;;;;5062741;28;19913;-67
2023/02/22 09:34:54;;;;;;;;;;;10.40;99.90;;;;;;5068344;28;20037;-67
2023/02/22 09:37:20;;;;;;;;;;;10.50;99.90;;;;;;5072003;28;20009;-67
2023/02/22 09:39:46;;;;;;;;;;;10.60;99.90;;;;;;5069193;28;20883;-67
2023/02/22 09:42:15;;;;;;;;;;;10.60;99.90;;;;;;5069719;28;19916;-64
2023/02/22 09:44:52;;;;;;;;;;;10.80;99.90;;;;;;5050218;28;19913;-68
2023/02/22 09:47:32;;;;;;;;;;;10.90;99.90;;;;;;5060581;28;19931;-67
2023/02/22 09:50:04;;;;;;;;;;;11.00;99.90;;;;;;5075132;28;19916;-69
2023/02/22 09:52:32;;;;;;;;;;;11.30;99.90;;;;;;5069400;28;19970;-68
2023/02/22 09:55:16;;;;;;;;;;;11.40;99.90;;;;;;5068089;28;20496;-69
2023/02/22 09:57:42;;;;;;;;;;;11.60;99.90;;;;;;5072489;28;19909;-69
2023/02/22 10:00:17;;;;;;;;;;;11.80;99.90;;;;;;5073510;28;19916;-68
2023/02/22 10:02:47;;;;;;;;;;;11.90;99.90;;;;;;5070821;28;20003;-68
2023/02/22 10:05:26;;;;;;;;;;;11.80;99.90;;;;;;5072403;28;19912;-68
2023/02/22 10:08:04;;;;;;;;;;;11.70;99.90;;;;;;5072878;28;20007;-69
2023/02/22 10:10:32;;;;;;;;;;;11.50;99.90;;;;;;5071854;28;19920;-68
2023/02/22 10:13:16;;;;;;;;;;;11.40;99.90;;;;;;5071651;28;19912;-69
2023/02/22 10:15:50;;;;;;;;;;;11.30;99.90;;;;;;5072749;28;19992;-68
2023/02/22 10:18:21;;;;;;;;;;;11.10;99.90;;;;;;5073117;28;19934;-68
2023/02/22 10:20:47;;;;;;;;;;;11.00;99.90;;;;;;5072642;28;20362;-69
2023/02/22 10:23:28;;;;;;;;;;;11.00;99.90;;;;;;5072802;28;19912;-69
2023/02/22 10:25:56;;;;;;;;;;;11.00;99.90;;;;;;5071422;28;19962;-70
2023/02/22 10:28:29;;;;;;;;;;;11.00;99.90;;;;;;5072729;28;19927;-69
2023/02/22 10:31:04;;;;;;;;;;;10.90;99.90;;;;;;5073082;28;20014;-68
2023/02/22 10:33:32;;;;;;;;;;;11.00;99.90;;;;;;5072829;28;19908;-69
2023/02/22 10:35:58;;;;;;;;;;;11.10;99.90;;;;;;5072919;28;19958;-68
2023/02/22 10:38:25;;;;;;;;;;;11.30;99.90;;;;;;5071386;28;19916;-68
2023/02/22 10:40:54;;;;;;;;;;;11.30;99.90;;;;;;5055544;28;20338;-69
2023/02/22 10:43:20;;;;;;;;;;;11.50;99.90;;;;;;5070235;28;19952;-69
2023/02/22 10:45:45;;;;;;;;;;;11.50;99.90;;;;;;5072505;28;19920;-69
2023/02/22 10:48:14;;;;;;;;;;;11.50;99.90;;;;;;5072745;28;19909;-69
2023/02/22 10:50:41;;;;;;;;;;;11.60;99.90;;;;;;5071929;28;20263;-69
2023/02/22 10:53:08;;;;;;;;;;;11.70;99.90;;;;;;5071710;28;19909;-69
2023/02/22 10:55:34;;;;;;;;;;;11.70;99.90;;;;;;5065810;28;19938;-68
2023/02/22 10:58:03;;;;;;;;;;;11.70;99.90;;;;;;5071769;28;19908;-68
2023/02/22 11:00:31;;;;;;;;;;;11.60;99.90;;;;;;5072668;28;20289;-68
2023/02/22 11:02:56;;;;;;;;;;;11.40;99.90;;;;;;5072765;28;19931;-68
2023/02/22 11:05:27;;;;;;;;;;;11.40;99.90;;;;;;5073033;28;20381;-68
2023/02/22 11:08:13;;;;;;;;;;;11.40;99.90;;;;;;5073206;28;19908;-68
2023/02/22 11:10:39;;;;;;;;;;;11.30;99.90;;;;;;5064518;28;20386;-68
2023/02/22 11:13:27;;;;;;;;;;;11.30;99.90;;;;;;5071223;28;19920;-68
2023/02/22 11:16:01;;;;;;;;;;;11.30;99.90;;;;;;5065895;28;20394;-68
2023/02/22 11:18:33;;;;;;;;;;;11.30;99.90;;;;;;5071782;28;19912;-68
2023/02/22 11:21:03;;;;;;;;;;;11.20;99.90;;;;;;5072203;28;19909;-68
2023/02/22 11:23:29;;;;;;;;;;;11.10;99.90;;;;;;5072408;28;19943;-67
2023/02/22 11:26:02;;;;;;;;;;;11.10;99.90;;;;;;5072246;28;19919;-69
2023/02/22 11:28:31;;;;;;;;;;;11.20;99.90;;;;;;5072614;28;19916;-68
2023/02/22 11:31:18;;;;;;;;;;;11.30;99.90;;;;;;5073138;28;19912;-68
2023/02/22 11:33:56;;;;;;;;;;;11.30;99.90;;;;;;5066639;28;19920;-67
2023/02/22 11:36:30;;;;;;;;;;;11.40;99.90;;;;;;5054858;28;19921;-68
2023/02/22 11:38:58;;;;;;;;;;;11.40;99.90;;;;;;5075021;28;19913;-68
2023/02/22 11:41:33;;;;;;;;;;;11.40;99.90;;;;;;5073299;28;19912;-68
2023/02/22 11:44:19;;;;;;;;;;;11.50;99.90;;;;;;5073656;28;19947;-68
2023/02/22 11:46:46;;;;;;;;;;;11.60;99.90;;;;;;5055638;28;20377;-67
2023/02/22 11:49:13;;;;;;;;;;;11.80;99.90;;;;;;5073721;28;19912;-68
2023/02/22 11:51:51;;;;;;;;;;;12.10;99.90;;;;;;5073667;28;19931;-68
2023/02/22 11:54:52;;;;;;;;;;;12.00;99.90;;;;;;5072246;28;19995;-68
2023/02/22 11:57:20;;;;;;;;;;;11.90;99.90;;;;;;4970837;28;20328;-66
2023/02/22 12:00:14;;;;;;;;;;;11.80;99.90;;;;;;5053464;28;20382;-67
2023/02/22 12:02:40;;;;;;;;;;;11.70;99.90;;;;;;5074094;28;19955;-67
2023/02/22 12:05:17;;;;;;;;;;;11.60;99.90;;;;;;5065237;28;19985;-67
2023/02/22 12:07:47;;;;;;;;;;;11.50;99.90;;;;;;5065432;28;20406;-67
2023/02/22 12:10:31;;;;;;;;;;;11.50;99.90;;;;;;5069349;28;19912;-68
2023/02/22 12:13:17;;;;;;;;;;;11.30;99.90;;;;;;5066999;28;19972;-68
2023/02/22 12:15:45;;;;;;;;;;;11.00;99.90;;;;;;5053873;28;19916;-68
2023/02/22 12:18:24;;;;;;;;;;;10.90;99.90;;;;;;5072299;28;19913;-68
2023/02/22 12:20:54;;;;;;;;;;;10.80;99.90;;;;;;5069622;28;19937;-73
2023/02/22 12:23:22;;;;;;;;;;;10.90;99.90;;;;;;5072700;28;20338;-68
2023/02/22 12:26:03;;;;;;;;;;;10.90;99.90;;;;;;5069371;28;19919;-68
2023/02/22 12:28:37;;;;;;;;;;;11.00;99.90;;;;;;5067639;28;19923;-67
2023/02/22 12:31:07;;;;;;;;;;;11.20;99.90;;;;;;5071927;28;19935;-68
2023/02/22 12:33:41;;;;;;;;;;;11.20;99.90;;;;;;5067924;28;19921;-68
2023/02/22 12:36:10;;;;;;;;;;;11.20;99.90;;;;;;5070007;28;20019;-68
2023/02/22 12:38:43;;;;;;;;;;;11.40;99.90;;;;;;5064478;28;19928;-68
2023/02/22 12:41:09;;;;;;;;;;;11.50;99.90;;;;;;5064880;28;19913;-68
2023/02/22 12:43:40;;;;;;;;;;;11.60;99.90;;;;;;5065544;28;20288;-68
2023/02/22 12:46:11;;;;;;;;;;;11.50;99.90;;;;;;5068475;28;20398;-69
2023/02/22 12:48:42;;;;;;;;;;;11.50;99.90;;;;;;5068020;28;19995;-68
2023/02/22 12:51:10;;;;;;;;;;;11.40;99.90;;;;;;5059638;28;19927;-68
2023/02/22 12:53:39;;;;;;;;;;;11.40;99.90;;;;;;5065414;28;19921;-68
2023/02/22 12:56:23;;;;;;;;;;;11.40;99.90;;;;;;5053540;23;19925;-87
2023/02/22 12:59:07;;;;;;;;;;;11.40;99.90;;;;;;5017913;28;20014;-85
2023/02/22 13:01:36;;;;;;;;;;;11.20;99.90;;;;;;5025821;28;19917;-87
2023/02/22 13:04:07;;;;;;;;;;;11.30;99.90;;;;;;5028929;28;19924;-84
2023/02/22 13:06:43;;;;;;;;;;;11.30;99.90;;;;;;5042776;28;19913;-85
2023/02/22 13:09:12;;;;;;;;;;;11.30;99.90;;;;;;5043903;28;20422;-85
2023/02/22 13:11:40;;;;;;;;;;;11.30;99.90;;;;;;5021234;28;19921;-85
2023/02/22 13:14:06;;;;;;;;;;;11.30;99.90;;;;;;5023195;28;19971;-84
2023/02/22 13:16:41;;;;;;;;;;;11.40;99.90;;;;;;5026286;28;20012;-85
2023/02/22 13:19:28;;;;;;;;;;;11.40;99.90;;;;;;5040770;28;19964;-86
2023/02/22 13:21:58;;;;;;;;;;;11.50;99.90;;;;;;5042534;28;19914;-86
2023/02/22 13:24:27;;;;;;;;;;;11.60;99.90;;;;;;5025928;28;20381;-86
2023/02/22 13:26:56;;;;;;;;;;;11.80;99.90;;;;;;5027527;28;19925;-85
2023/02/22 13:29:34;;;;;;;;;;;11.90;99.90;;;;;;5044082;28;19945;-85
2023/02/22 13:32:07;;;;;;;;;;;11.90;99.90;;;;;;5032866;28;20245;-86
2023/02/22 13:34:46;;;;;;;;;;;11.90;99.90;;;;;;5028991;28;19921;-86
2023/02/22 13:37:30;;;;;;;;;;;12.00;99.90;;;;;;5031081;28;19920;-87
2023/02/22 13:40:08;;;;;;;;;;;12.20;99.90;;;;;;5038096;28;19913;-86
2023/02/22 13:42:48;;;;;;;;;;;12.30;99.90;;;;;;5039416;28;19913;-87
2023/02/22 13:45:33;;;;;;;;;;;12.20;99.90;;;;;;5027448;28;19913;-86
2023/02/22 13:47:59;;;;;;;;;;;12.20;99.90;;;;;;5030105;28;19913;-87
2023/02/22 13:50:40;;;;;;;;;;;12.30;99.90;;;;;;5028845;28;19967;-86
2023/02/22 13:53:08;;;;;;;;;;;12.40;99.90;;;;;;5028483;28;19945;-85
2023/02/22 13:55:34;;;;;;;;;;;12.50;99.90;;;;;;5030879;28;19948;-85
2023/02/22 13:58:00;;;;;;;;;;;12.50;99.90;;;;;;5032442;28;19909;-85
2023/02/22 14:00:39;;;;;;;;;;;12.60;99.90;;;;;;5033903;28;20009;-87
2023/02/22 14:03:11;;;;;;;;;;;12.60;99.90;;;;;;5026214;28;19971;-84
2023/02/22 14:05:49;;;;;;;;;;;12.70;99.90;;;;;;5031416;28;19917;-85
2023/02/22 14:08:18;;;;;;;;;;;12.60;99.90;;;;;;5029698;28;19971;-87
2023/02/22 14:10:48;;;;;;;;;;;12.60;99.90;;;;;;5040345;28;19924;-84
2023/02/22 14:13:18;;;;;;;;;;;12.70;99.90;;;;;;5028817;28;19921;-87
2023/02/22 14:15:56;;;;;;;;;;;12.70;99.90;;;;;;5045831;28;19945;-86
2023/02/22 14:18:23;;;;;;;;;;;12.70;99.90;;;;;;5044332;28;19972;-86
2023/02/22 14:21:05;;;;;;;;;;;12.90;99.90;;;;;;5028183;28;19913;-87
2023/02/22 14:23:36;;;;;;;;;;;12.90;99.90;;;;;;5045311;28;19948;-87
2023/02/22 14:26:14;;;;;;;;;;;12.90;99.90;;;;;;5026142;28;20385;-88
2023/02/22 14:28:53;;;;;;;;;;;12.90;99.90;;;;;;5040209;28;19925;-87
2023/02/22 14:31:20;;;;;;;;;;;13.00;99.90;;;;;;5029224;28;19909;-87
2023/02/22 14:33:58;;;;;;;;;;;13.00;99.90;;;;;;5035200;28;20392;-86
2023/02/22 14:36:42;;;;;;;;;;;13.10;99.90;;;;;;5029834;28;19928;-85